createdAt,value
2022-10-13T00:01:09.216Z,99634.69
2022-10-13T00:04:10.984Z,99615.75
2022-10-13T00:07:12.648Z,99631.69
2022-10-13T00:10:14.249Z,99642.06
2022-10-13T00:13:16.649Z,99625.78
2022-10-13T00:16:21.104Z,99639.78
2022-10-13T00:19:22.795Z,99635.94
2022-10-13T00:22:34.125Z,99629.69
2022-10-13T00:25:35.839Z,99640.31
2022-10-13T00:28:38.672Z,99639.34
2022-10-13T00:31:42.748Z,99628.47
2022-10-13T00:34:44.481Z,99618.63
2022-10-13T00:37:46.606Z,99626.22
2022-10-13T00:40:56.229Z,99617.16
2022-10-13T00:44:07.116Z,99613.34
2022-10-13T00:47:09.508Z,99622.47
2022-10-13T00:50:16.690Z,99622.13
2022-10-13T00:53:25.778Z,99619.81
2022-10-13T00:56:28.634Z,99613.91
2022-10-13T00:59:35.932Z,99597.91
2022-10-13T01:02:39.018Z,99610.16
2022-10-13T01:05:42.380Z,99610.16
2022-10-13T01:08:44.304Z,99618.53
2022-10-13T01:11:59.773Z,99615.59
2022-10-13T01:15:20.579Z,99611.47
2022-10-13T01:19:12.452Z,99618.53
2022-10-13T01:22:57.061Z,99618.38
2022-10-13T01:26:18.312Z,99605.66
2022-10-13T01:29:59.346Z,99614.44
2022-10-13T01:33:10.139Z,99609.69
2022-10-13T01:36:23.417Z,99602.38
2022-10-13T01:39:50.324Z,99613.34
2022-10-13T01:43:02.074Z,99610.19
2022-10-13T01:46:13.404Z,99606.38
2022-10-13T01:49:18.797Z,99607.84
2022-10-13T01:52:23.872Z,99607.66
2022-10-13T01:55:25.527Z,99616.06
2022-10-13T01:58:30.025Z,99617.69
2022-10-13T02:01:43.514Z,99625.00
2022-10-13T02:04:59.787Z,99614.81
2022-10-13T02:08:24.854Z,99610.81
2022-10-13T02:11:27.759Z,99606.34
2022-10-13T02:14:32.537Z,99607.00
2022-10-13T02:17:34.888Z,99614.28
2022-10-13T02:20:37.355Z,99598.41
2022-10-13T02:23:39.021Z,99607.66
2022-10-13T02:26:43.850Z,99614.53
2022-10-13T02:29:55.356Z,99620.72
2022-10-13T02:33:01.958Z,99629.34
2022-10-13T02:36:04.103Z,99617.56
2022-10-13T02:39:07.712Z,99601.66
2022-10-13T02:42:10.635Z,99614.69
2022-10-13T02:45:12.812Z,99603.72
2022-10-13T02:48:14.497Z,99610.75
2022-10-13T02:51:16.238Z,99607.72
2022-10-13T02:54:17.943Z,99590.69
2022-10-13T02:57:19.565Z,99575.59
2022-10-13T03:00:22.946Z,99583.84
2022-10-13T03:03:24.696Z,99579.88
2022-10-13T03:06:29.273Z,99574.78
2022-10-13T03:09:31.027Z,99559.00
2022-10-13T03:12:33.052Z,99599.44
2022-10-13T03:15:34.725Z,99604.22
2022-10-13T03:18:39.138Z,99579.03
2022-10-13T03:21:40.839Z,99593.22
2022-10-13T03:24:42.964Z,99597.34
2022-10-13T03:27:44.638Z,99591.63
2022-10-13T03:30:46.313Z,99591.16
2022-10-13T03:33:47.946Z,99579.38
2022-10-13T03:36:49.580Z,99570.63
2022-10-13T03:39:51.316Z,99563.66
2022-10-13T03:42:52.898Z,99567.13
2022-10-13T03:45:58.874Z,99566.03
2022-10-13T03:49:00.578Z,99572.38
2022-10-13T03:52:05.641Z,99574.59
2022-10-13T03:55:07.529Z,99566.34
2022-10-13T03:58:09.159Z,99576.03
2022-10-13T04:01:12.953Z,99584.47
2022-10-13T04:04:17.220Z,99589.25
2022-10-13T04:07:22.044Z,99581.91
2022-10-13T04:10:23.712Z,99583.94
2022-10-13T04:13:25.547Z,99584.56
2022-10-13T04:16:30.200Z,99578.81
2022-10-13T04:19:31.909Z,99566.44
2022-10-13T04:22:36.265Z,99575.59
2022-10-13T04:25:39.142Z,99560.59
2022-10-13T04:28:40.754Z,99552.81
2022-10-13T04:31:45.384Z,99541.53
2022-10-13T04:34:50.515Z,99543.88
2022-10-13T04:37:52.536Z,99540.22
2022-10-13T04:40:54.191Z,99543.97
2022-10-13T04:43:55.912Z,99547.22
2022-10-13T04:46:58.236Z,99540.03
2022-10-13T04:49:59.987Z,99540.69
2022-10-13T04:53:01.725Z,99532.47
2022-10-13T04:56:11.335Z,99521.28
2022-10-13T04:59:15.882Z,99518.09
2022-10-13T05:02:17.932Z,99507.22
2022-10-13T05:05:19.897Z,99514.72
2022-10-13T05:08:21.785Z,99520.38
2022-10-13T05:11:25.482Z,99519.31
2022-10-13T05:14:27.182Z,99512.75
2022-10-13T05:17:35.063Z,99517.19
2022-10-13T05:20:42.832Z,99509.09
2022-10-13T05:23:45.802Z,99512.81
2022-10-13T05:26:47.430Z,99489.31
2022-10-13T05:29:49.182Z,99504.44
2022-10-13T05:32:53.825Z,99527.38
2022-10-13T05:36:03.973Z,99530.31
2022-10-13T05:39:10.039Z,99523.41
2022-10-13T05:42:11.767Z,99489.72
2022-10-13T05:45:14.346Z,99502.63
2022-10-13T05:48:16.454Z,99516.50
2022-10-13T05:51:22.942Z,99518.13
2022-10-13T05:54:35.617Z,99517.91
2022-10-13T05:57:42.088Z,99526.03
2022-10-13T06:00:44.059Z,99525.44
2022-10-13T06:03:48.769Z,99521.00
2022-10-13T06:06:50.757Z,99526.38
2022-10-13T06:09:52.835Z,99531.31
2022-10-13T06:12:54.401Z,99528.66
2022-10-13T06:15:56.031Z,99532.63
2022-10-13T06:18:57.921Z,99526.75
2022-10-13T06:22:03.399Z,99523.53
2022-10-13T06:25:07.238Z,99512.53
2022-10-13T06:28:08.880Z,99511.44
2022-10-13T06:31:10.540Z,99528.94
2022-10-13T06:34:12.702Z,99514.78
2022-10-13T06:37:15.171Z,99509.06
2022-10-13T06:40:17.241Z,99522.69
2022-10-13T06:43:18.834Z,99526.72
2022-10-13T06:46:25.152Z,99534.47
2022-10-13T06:49:26.924Z,99524.09
2022-10-13T06:52:28.518Z,99514.88
2022-10-13T06:55:30.269Z,99521.00
2022-10-13T06:58:32.127Z,99515.78
2022-10-13T07:01:39.135Z,99516.06
2022-10-13T07:04:46.982Z,99530.03
2022-10-13T07:07:51.542Z,99523.66
2022-10-13T07:10:53.260Z,99511.78
2022-10-13T07:13:55.145Z,99517.69
2022-10-13T07:16:56.757Z,99524.69
2022-10-13T07:19:59.695Z,99526.56
2022-10-13T07:23:04.111Z,99525.91
2022-10-13T07:26:11.445Z,99536.94
2022-10-13T07:29:13.429Z,99537.13
2022-10-13T07:32:15.048Z,99532.03
2022-10-13T07:35:17.092Z,99530.78
2022-10-13T07:38:19.740Z,99523.47
2022-10-13T07:41:23.192Z,99526.13
2022-10-13T07:44:28.799Z,99527.38
2022-10-13T07:47:31.235Z,99515.25
2022-10-13T07:50:36.470Z,99528.09
2022-10-13T07:53:39.095Z,99516.84
2022-10-13T07:57:06.574Z,99501.78
2022-10-13T08:00:14.461Z,99498.94
2022-10-13T08:03:50.951Z,99506.31
2022-10-13T08:06:55.995Z,99509.63
2022-10-13T08:09:59.089Z,99498.31
2022-10-13T08:13:01.415Z,99505.50
2022-10-13T08:16:26.379Z,99448.34
2022-10-13T08:23:29.446Z,99494.38
2022-10-13T08:27:26.644Z,99480.50
2022-10-13T08:30:42.155Z,99502.53
2022-10-13T08:33:47.398Z,99507.41
2022-10-13T08:40:46.919Z,99461.81
2022-10-13T08:45:10.894Z,99474.97
2022-10-13T08:48:33.261Z,99493.97
2022-10-13T08:51:36.290Z,99495.78
2022-10-13T08:54:38.424Z,99492.94
2022-10-13T08:57:40.236Z,99488.19
2022-10-13T09:00:41.993Z,99487.31
2022-10-13T09:03:52.937Z,99481.78
2022-10-13T09:07:10.585Z,99476.16
2022-10-13T09:10:12.195Z,99476.78
2022-10-13T09:13:13.863Z,99485.34
2022-10-13T09:16:15.535Z,99481.81
2022-10-13T09:19:22.693Z,99494.22
2022-10-13T09:22:25.685Z,99493.19
2022-10-13T09:25:27.406Z,99488.59
2022-10-13T09:28:31.405Z,99495.03
2022-10-13T09:31:33.830Z,99486.13
2022-10-13T09:34:35.572Z,99491.69
2022-10-13T09:37:40.530Z,99492.13
2022-10-13T09:43:50.307Z,99482.59
2022-10-13T09:47:03.030Z,99486.81
2022-10-13T09:50:17.997Z,99493.69
2022-10-13T09:53:32.187Z,99504.56
2022-10-13T09:56:43.211Z,99493.59
2022-10-13T10:00:07.251Z,99495.53
2022-10-13T10:03:24.165Z,99496.22
2022-10-13T10:06:27.893Z,99495.44
2022-10-13T10:09:58.673Z,99489.56
2022-10-13T10:13:01.473Z,99494.66
2022-10-13T10:16:07.030Z,99499.59
2022-10-13T10:19:30.602Z,99499.31
2022-10-13T10:23:07.808Z,99502.72
2022-10-13T10:26:47.031Z,99502.69
2022-10-13T10:30:00.570Z,99511.44
2022-10-13T10:33:13.336Z,99511.66
2022-10-13T10:36:24.055Z,99504.19
2022-10-13T10:39:38.936Z,99495.31
2022-10-13T10:43:09.992Z,99476.28
2022-10-13T10:46:22.699Z,99478.75
2022-10-13T10:49:30.797Z,99471.72
2022-10-13T10:53:00.357Z,99488.56
2022-10-13T10:56:29.660Z,99486.38
2022-10-13T10:59:51.837Z,99480.59
2022-10-13T11:03:11.524Z,99470.69
2022-10-13T11:06:13.138Z,99443.06
2022-10-13T11:09:14.778Z,99433.19
2022-10-13T11:12:19.701Z,99433.22
2022-10-13T11:15:27.732Z,99405.84
2022-10-13T11:19:08.425Z,99414.19
2022-10-13T11:22:17.933Z,99418.31
2022-10-13T11:25:37.253Z,99409.19
2022-10-13T11:28:42.455Z,99417.16
2022-10-13T11:31:55.712Z,99426.22
2022-10-13T11:35:05.247Z,99434.66
2022-10-13T11:38:23.238Z,99427.41
2022-10-13T11:41:33.251Z,99426.25
2022-10-13T11:44:55.383Z,99438.41
2022-10-13T11:48:15.586Z,99410.22
2022-10-13T11:51:30.166Z,99417.56
2022-10-13T11:54:37.727Z,99407.38
2022-10-13T11:57:39.431Z,99393.31
2022-10-13T12:00:57.156Z,99378.72
2022-10-13T12:03:58.801Z,99373.19
2022-10-13T12:07:03.728Z,99385.03
2022-10-13T12:10:08.848Z,99381.09
2022-10-13T12:13:24.219Z,99389.06
2022-10-13T12:16:27.322Z,99375.47
2022-10-13T12:19:31.734Z,99387.44
2022-10-13T12:22:36.847Z,99375.63
2022-10-13T12:25:48.103Z,99368.28
2022-10-13T12:28:54.358Z,99362.94
2022-10-13T12:31:58.340Z,99364.94
2022-10-13T12:35:25.775Z,99358.75
2022-10-13T12:38:27.618Z,99371.75
2022-10-13T12:41:35.525Z,99364.69
2022-10-13T12:44:37.615Z,99360.03
2022-10-13T12:47:45.411Z,99367.06
2022-10-13T12:50:47.058Z,99357.69
2022-10-13T12:53:49.239Z,99356.94
2022-10-13T12:56:56.498Z,99351.78
2022-10-13T12:59:58.480Z,99355.31
2022-10-13T13:03:06.288Z,99350.31
2022-10-13T13:06:15.938Z,99361.66
2022-10-13T13:09:25.020Z,99356.75
2022-10-13T13:12:28.355Z,99364.22
2022-10-13T13:15:37.218Z,99360.88
2022-10-13T13:18:41.814Z,99357.31
2022-10-13T13:21:43.942Z,99361.44
2022-10-13T13:24:48.582Z,99358.25
2022-10-13T13:27:50.835Z,99353.03
2022-10-13T13:30:52.786Z,99354.00
2022-10-13T13:33:54.426Z,99346.72
2022-10-13T13:36:56.062Z,99358.66
2022-10-13T13:39:58.775Z,99356.22
2022-10-13T13:43:00.449Z,99358.09
2022-10-13T13:46:07.484Z,99362.38
2022-10-13T13:49:12.173Z,99348.25
2022-10-13T13:52:13.827Z,99347.28
2022-10-13T13:55:15.679Z,99343.69
2022-10-13T13:58:17.317Z,99337.81
2022-10-13T14:01:19.093Z,99345.94
2022-10-13T14:04:20.765Z,99345.88
2022-10-13T14:07:23.000Z,99332.16
2022-10-13T14:10:29.278Z,99335.56
2022-10-13T14:13:30.896Z,99330.03
2022-10-13T14:16:32.852Z,99330.78
2022-10-13T14:19:38.088Z,99338.34
2022-10-13T14:22:40.067Z,99337.47
2022-10-13T14:25:41.709Z,99337.75
2022-10-13T14:28:44.826Z,99331.81
2022-10-13T14:31:46.494Z,99345.81
2022-10-13T14:34:48.257Z,99344.13
2022-10-13T14:37:50.009Z,99328.03
2022-10-13T14:40:51.616Z,99335.88
2022-10-13T14:43:54.663Z,99343.06
2022-10-13T14:46:56.934Z,99330.53
2022-10-13T14:50:01.252Z,99338.53
2022-10-13T14:53:02.825Z,99332.59
2022-10-13T14:56:20.227Z,99336.84
2022-10-13T14:59:26.602Z,99329.47
2022-10-13T15:02:28.149Z,99324.78
2022-10-13T15:05:30.449Z,99321.78
2022-10-13T15:08:32.754Z,99344.81
2022-10-13T15:11:34.810Z,99339.31
2022-10-13T15:14:36.460Z,99334.34
2022-10-13T15:17:38.646Z,99322.34
2022-10-13T15:20:47.500Z,99331.25
2022-10-13T15:23:51.417Z,99303.97
2022-10-13T15:26:53.103Z,99339.00
2022-10-13T15:29:54.799Z,99328.31
2022-10-13T15:32:56.598Z,99321.19
2022-10-13T15:35:58.350Z,99321.50
2022-10-13T15:39:00.223Z,99319.78
2022-10-13T15:42:02.264Z,99316.84
2022-10-13T15:45:09.938Z,99331.25
2022-10-13T15:48:13.074Z,99316.19
2022-10-13T15:51:18.356Z,99318.41
2022-10-13T15:54:21.654Z,99304.63
2022-10-13T15:57:25.150Z,99304.47
2022-10-13T16:00:27.158Z,99311.84
2022-10-13T16:03:30.582Z,99314.13
2022-10-13T16:06:33.643Z,99318.72
2022-10-13T16:09:35.255Z,99317.59
2022-10-13T16:12:36.872Z,99321.03
2022-10-13T16:15:41.956Z,99319.28
2022-10-13T16:18:44.902Z,99316.91
2022-10-13T16:21:46.955Z,99310.50
2022-10-13T16:24:49.606Z,99312.63
2022-10-13T16:27:51.360Z,99327.22
2022-10-13T16:30:52.951Z,99325.47
2022-10-13T16:33:54.646Z,99310.53
2022-10-13T16:36:56.356Z,99319.59
2022-10-13T16:39:58.032Z,99313.53
2022-10-13T16:42:59.650Z,99317.13
2022-10-13T16:46:03.368Z,99320.13
2022-10-13T16:49:07.796Z,99321.63
2022-10-13T16:52:09.436Z,99312.84
2022-10-13T16:55:11.168Z,99323.03
2022-10-13T16:58:12.868Z,99322.75
2022-10-13T17:01:14.498Z,99324.94
2022-10-13T17:04:19.797Z,99335.72
2022-10-13T17:07:23.914Z,99332.47
2022-10-13T17:10:25.671Z,99341.69
2022-10-13T17:13:27.326Z,99336.84
2022-10-13T17:16:29.972Z,99348.97
2022-10-13T17:19:31.927Z,99347.38
2022-10-13T17:22:33.881Z,99338.66
2022-10-13T17:25:35.499Z,99344.41
2022-10-13T17:28:40.371Z,99343.88
2022-10-13T17:31:41.992Z,99336.28
2022-10-13T17:34:43.671Z,99354.22
2022-10-13T17:37:49.950Z,99349.88
2022-10-13T17:40:57.313Z,99356.94
2022-10-13T17:44:01.523Z,99350.94
2022-10-13T17:47:03.213Z,99349.81
2022-10-13T17:50:05.267Z,99347.09
2022-10-13T17:53:06.940Z,99353.06
2022-10-13T17:56:12.398Z,99335.94
2022-10-13T17:59:16.089Z,99337.47
2022-10-13T18:02:18.962Z,99340.97
2022-10-13T18:05:20.626Z,99323.06
2022-10-13T18:08:22.194Z,99343.22
2022-10-13T18:11:24.989Z,99346.28
2022-10-13T18:14:26.585Z,99347.31
2022-10-13T18:17:28.239Z,99341.34
2022-10-13T18:20:29.810Z,99347.38
2022-10-13T18:23:32.447Z,99349.78
2022-10-13T18:26:37.179Z,99355.22
2022-10-13T18:29:42.138Z,99358.28
2022-10-13T18:32:43.798Z,99344.56
2022-10-13T18:35:46.862Z,99351.41
2022-10-13T18:38:49.538Z,99360.34
2022-10-13T18:41:52.594Z,99360.47
2022-10-13T18:44:54.247Z,99361.63
2022-10-13T18:47:55.973Z,99371.47
2022-10-13T18:51:03.609Z,99368.28
2022-10-13T18:54:06.758Z,99375.63
2022-10-13T18:57:08.381Z,99362.84
2022-10-13T19:00:10.449Z,99368.50
2022-10-13T19:03:13.262Z,99366.91
2022-10-13T19:06:16.718Z,99362.81
2022-10-13T19:09:21.618Z,99358.06
2022-10-13T19:12:23.251Z,99365.09
2022-10-13T19:15:24.825Z,99366.66
2022-10-13T19:18:28.260Z,99362.22
2022-10-13T19:21:29.927Z,99349.66
2022-10-13T19:24:31.668Z,99353.63
2022-10-13T19:27:33.506Z,99361.44
2022-10-13T19:30:35.123Z,99356.69
2022-10-13T19:33:41.981Z,99348.09
2022-10-13T19:36:49.188Z,99366.56
2022-10-13T19:39:50.846Z,99365.09
2022-10-13T19:42:52.463Z,99364.31
2022-10-13T19:45:59.642Z,99368.94
2022-10-13T19:49:02.063Z,99367.03
2022-10-13T19:52:04.099Z,99372.09
2022-10-13T19:55:06.142Z,99385.47
2022-10-13T19:58:07.779Z,99376.91
2022-10-13T20:01:09.493Z,99383.00
2022-10-13T20:04:11.309Z,99391.38
2022-10-13T20:07:14.878Z,99390.56
2022-10-13T20:10:16.529Z,99392.66
2022-10-13T20:13:18.099Z,99372.06
2022-10-13T20:16:24.707Z,99381.44
2022-10-13T20:19:27.444Z,99384.16
2022-10-13T20:22:29.053Z,99371.25
2022-10-13T20:25:30.622Z,99380.97
2022-10-13T20:28:32.727Z,99373.41
2022-10-13T20:31:34.636Z,99362.09
2022-10-13T20:34:36.245Z,99366.50
2022-10-13T20:37:37.952Z,99354.94
2022-10-13T20:40:39.559Z,99346.34
2022-10-13T20:43:41.400Z,99366.25
2022-10-13T20:46:42.997Z,99359.25
2022-10-13T20:49:44.578Z,99354.38
2022-10-13T20:52:46.173Z,99355.63
2022-10-13T20:55:56.146Z,99349.41
2022-10-13T20:59:03.193Z,99350.53
2022-10-13T21:02:04.811Z,99360.59
2022-10-13T21:05:07.950Z,99356.75
2022-10-13T21:08:10.237Z,99356.88
2022-10-13T21:11:13.975Z,99359.72
2022-10-13T21:14:15.753Z,99361.28
2022-10-13T21:17:17.373Z,99345.78
2022-10-13T21:20:18.943Z,99353.59
2022-10-13T21:23:20.518Z,99352.81
2022-10-13T21:26:23.448Z,99348.97
2022-10-13T21:29:25.111Z,99348.44
2022-10-13T21:32:26.693Z,99365.28
2022-10-13T21:35:28.246Z,99355.00
2022-10-13T21:38:30.294Z,99353.19
2022-10-13T21:41:31.918Z,99357.94
2022-10-13T21:44:33.497Z,99361.13
2022-10-13T21:47:36.776Z,99364.94
2022-10-13T21:50:38.390Z,99361.13
2022-10-13T21:53:39.991Z,99363.03
2022-10-13T21:56:42.087Z,99352.72
2022-10-13T21:59:43.885Z,99360.75
2022-10-13T22:02:45.463Z,99359.72
2022-10-13T22:05:47.238Z,99364.25
2022-10-13T22:08:52.650Z,99361.84
2022-10-13T22:11:56.937Z,99352.81
2022-10-13T22:14:58.514Z,99358.56
2022-10-13T22:18:00.118Z,99357.69
2022-10-13T22:21:03.413Z,99365.59
2022-10-13T22:24:07.257Z,99366.72
2022-10-13T22:27:08.880Z,99365.03
2022-10-13T22:30:10.966Z,99364.47
2022-10-13T22:33:12.728Z,99360.72
2022-10-13T22:36:19.282Z,99357.44
2022-10-13T22:39:21.273Z,99355.78
2022-10-13T22:42:27.801Z,99349.06
2022-10-13T22:45:29.404Z,99342.28
2022-10-13T22:48:31.132Z,99360.75
2022-10-13T22:51:35.493Z,99354.16
2022-10-13T22:54:37.069Z,99352.72
2022-10-13T22:57:38.718Z,99353.59
2022-10-13T23:00:40.350Z,99349.75
2022-10-13T23:03:42.683Z,99342.38
2022-10-13T23:06:44.377Z,99341.13
2022-10-13T23:09:45.935Z,99337.97
2022-10-13T23:12:47.518Z,99336.41
2022-10-13T23:15:49.293Z,99331.06
2022-10-13T23:18:51.580Z,99338.75
2022-10-13T23:21:58.953Z,99333.69
2022-10-13T23:25:00.484Z,99329.56
2022-10-13T23:28:02.292Z,99321.00
2022-10-13T23:31:06.877Z,99331.59
2022-10-13T23:34:08.479Z,99322.69
2022-10-13T23:37:10.103Z,99315.91
2022-10-13T23:40:12.063Z,99318.72
2022-10-13T23:43:13.666Z,99316.09
2022-10-13T23:46:16.307Z,99310.22
2022-10-13T23:49:17.950Z,99303.75
2022-10-13T23:52:20.021Z,99308.63
2022-10-13T23:55:21.658Z,99308.75
2022-10-13T23:58:23.274Z,99304.53
